Terminal Aerodrome Forecast
Issued by NWS

Home | Current Version | Previous Version | Text Only | Print | Product List | Glossary Off
Versions: 1 2 3 4 5 6 7 8 9 10 11 12 13 14 15

000
FTUS43 KGRB 171723
TAFAUW
TAF
KAUW 171723Z 1718/1818 16013G18KT P6SM -RA SCT015 OVC040
      TEMPO 1718/1721 5SM -RA BR BKN015
     FM172100 16010KT 4SM -RA BR SCT007 OVC015
     FM180000 17004KT 2SM -RA BR OVC005
     FM180300 VRB03KT 4SM -RA BR OVC004
     FM180600 35005KT 5SM -RASN BR OVC005
     FM181000 34007KT 6SM -RASN BR OVC008
     FM181400 34010G16KT P6SM OVC015=

USA.gov is the U.S. government's official web portal to all federal, state and local government web resources and services.